Aérodrome :
LOGIN :

S'inscrire | Disclaimer

   EN    FR    IT 

 










Légende :    VFR   VFR Marginal   IFR   IFR Intensif   IFR Très Intensif
Visi : 
Plafond : 
>= 8 km
>= 3000ft
5 à 8 km
1000 à 3000 ft
1500m à 5 km
500 à 1000 ft
800 à 1500m
200 à 500 ft
< 800m
< 200 ft
Symboles :   Orages  Brouillard  Fortes neiges  Fortes précipitations  Vent > 20 kt
SIGMETs :   Divers  Orages  Givrage  Turbulence  Onde Orograph.  Cendres Volcan.







- Altitude de l'aérodrome : 7 ft
- Code IATA : VCE


LIPZ - Marco Polo Int. Venezia

DERNIER METAR :
  • 272250Z 03006KT CAVOK 21/19 Q1017 NOSIG

METARs EXPIRÉS :
  • 272220Z 04005KT CAVOK 21/19 Q1017 NOSIG
  • 272150Z 02004KT CAVOK 22/19 Q1018 NOSIG
  • 272120Z 01005KT CAVOK 23/19 Q1017 NOSIG
  • 272050Z 35003KT 320V020 CAVOK 24/19 Q1017 NOSIG
  • 272020Z 36004KT 330V030 CAVOK 24/19 Q1017 NOSIG

TAF TAF LIPZ
Valide du 27 à 18h jusqu'au 29 à 00h UTC


271700Z 2718/2824 VRB05KT 9999 FEW040
BECMG 2810/2812 14010KT
TEMPO 2812/2818 TSRA
BECMG 2817/2819 VRB05KT
Pas de NOTAMs connus pour ce terrain.
2 SIGMETs publiés pour la FIR Milano (LIMM) :
 
Orages noyés dans la masse
LIMM SIGMET 8 VALID 272300/280300 LIIP
LIMM MILANO FIR EMBD TS OBS W OF LINE N4632 E00923 - N4322 E00847 TOP FL370 MOV S NC=
Orages noyés dans la masse
LIMM SIGMET 7 VALID 272100/272300 LIIP
LIMM MILANO FIR EMBD TS OBS WI N4557 E00800 - N4508 E00923 - N4533 E01102 - N4643 E01039 - N4557 E00800 TOP FL370 MOV S NC=



MET'MAP, la Météo Aéronautique d'un coup d'oeil ! - Copyright ORBIFLY Décembre 2007 - Disclaimer

ORBIFLY MET'MAP TEAM :

Programmation & Développement : Alexandra Zaïnal
Conception & Développement : Baudouin d'Aumeries
Co-Programmation & Développement : Marc-Olivier Méhu
Soutien technique & logistique : Manuel Goepfert

Contact : metmap@orbifly.com




SOURCES & CREDITS :

   NOAA